sensor_id;sensor_type;location;lat;lon;timestamp;pressure;altitude;pressure_sealevel;temperature;humidity
43147;BME280;28752;48.266;7.402;2023-04-16T00:01:30;99516.22;;;11.52;81.78
43147;BME280;28752;48.266;7.402;2023-04-16T00:03:55;99517.41;;;11.58;82.19
43147;BME280;28752;48.266;7.402;2023-04-16T00:06:21;99515.63;;;11.59;82.06
43147;BME280;28752;48.266;7.402;2023-04-16T00:08:47;99523.16;;;11.53;81.76
43147;BME280;28752;48.266;7.402;2023-04-16T00:11:12;99515.81;;;11.47;81.82
43147;BME280;28752;48.266;7.402;2023-04-16T00:13:37;99517.72;;;11.55;82.25
43147;BME280;28752;48.266;7.402;2023-04-16T00:16:03;99511.88;;;11.51;82.38
43147;BME280;28752;48.266;7.402;2023-04-16T00:18:28;99525.66;;;11.55;82.54
43147;BME280;28752;48.266;7.402;2023-04-16T00:20:57;99514.50;;;11.33;82.34
43147;BME280;28752;48.266;7.402;2023-04-16T00:23:23;99517.97;;;11.34;82.60
43147;BME280;28752;48.266;7.402;2023-04-16T00:25:49;99517.22;;;11.42;82.75
43147;BME280;28752;48.266;7.402;2023-04-16T00:28:15;99513.16;;;11.47;83.42
43147;BME280;28752;48.266;7.402;2023-04-16T00:30:40;99517.94;;;11.44;83.02
43147;BME280;28752;48.266;7.402;2023-04-16T00:33:06;99512.94;;;11.41;82.16
43147;BME280;28752;48.266;7.402;2023-04-16T00:35:31;99522.84;;;11.38;82.21
43147;BME280;28752;48.266;7.402;2023-04-16T00:37:56;99509.22;;;11.33;81.80
43147;BME280;28752;48.266;7.402;2023-04-16T00:40:22;99511.41;;;11.38;81.00
43147;BME280;28752;48.266;7.402;2023-04-16T00:42:47;99510.47;;;11.29;81.49
43147;BME280;28752;48.266;7.402;2023-04-16T00:45:12;99512.44;;;11.27;81.88
43147;BME280;28752;48.266;7.402;2023-04-16T00:47:38;99510.78;;;11.26;82.15
43147;BME280;28752;48.266;7.402;2023-04-16T00:50:03;99513.97;;;11.30;82.22
43147;BME280;28752;48.266;7.402;2023-04-16T00:52:30;99514.66;;;11.32;81.21
43147;BME280;28752;48.266;7.402;2023-04-16T00:54:57;99518.69;;;11.36;81.85
43147;BME280;28752;48.266;7.402;2023-04-16T00:57:23;99520.63;;;11.34;80.51
43147;BME280;28752;48.266;7.402;2023-04-16T00:59:48;99512.81;;;11.32;80.81
43147;BME280;28752;48.266;7.402;2023-04-16T01:02:14;99518.38;;;11.39;81.92
43147;BME280;28752;48.266;7.402;2023-04-16T01:04:40;99514.50;;;11.33;79.92
43147;BME280;28752;48.266;7.402;2023-04-16T01:07:06;99517.16;;;11.33;80.20
43147;BME280;28752;48.266;7.402;2023-04-16T01:09:31;99519.16;;;11.22;81.22
43147;BME280;28752;48.266;7.402;2023-04-16T01:11:56;99511.31;;;11.30;80.26
43147;BME280;28752;48.266;7.402;2023-04-16T01:14:22;99510.88;;;11.34;80.45
43147;BME280;28752;48.266;7.402;2023-04-16T01:16:47;99504.34;;;11.29;82.06
43147;BME280;28752;48.266;7.402;2023-04-16T01:19:12;99521.19;;;11.37;83.26
43147;BME280;28752;48.266;7.402;2023-04-16T01:21:38;99519.06;;;11.41;83.34
43147;BME280;28752;48.266;7.402;2023-04-16T01:24:03;99520.88;;;11.41;83.52
43147;BME280;28752;48.266;7.402;2023-04-16T01:26:29;99516.13;;;11.44;84.27
43147;BME280;28752;48.266;7.402;2023-04-16T01:28:55;99524.06;;;11.44;84.10
43147;BME280;28752;48.266;7.402;2023-04-16T01:31:20;99523.09;;;11.45;83.37
43147;BME280;28752;48.266;7.402;2023-04-16T01:33:45;99513.63;;;11.43;83.00
43147;BME280;28752;48.266;7.402;2023-04-16T01:36:11;99525.25;;;11.32;83.25
43147;BME280;28752;48.266;7.402;2023-04-16T01:38:36;99521.06;;;11.29;83.04
43147;BME280;28752;48.266;7.402;2023-04-16T01:41:01;99522.47;;;11.33;84.55
43147;BME280;28752;48.266;7.402;2023-04-16T01:43:27;99530.25;;;11.35;84.27
43147;BME280;28752;48.266;7.402;2023-04-16T01:46:10;99531.38;;;11.32;84.34
43147;BME280;28752;48.266;7.402;2023-04-16T01:48:36;99535.19;;;11.30;84.22
43147;BME280;28752;48.266;7.402;2023-04-16T01:51:01;99541.91;;;11.24;84.94
43147;BME280;28752;48.266;7.402;2023-04-16T01:53:28;99538.47;;;11.14;85.09
43147;BME280;28752;48.266;7.402;2023-04-16T01:55:54;99539.72;;;11.10;85.92
43147;BME280;28752;48.266;7.402;2023-04-16T01:58:19;99540.38;;;11.22;85.43
43147;BME280;28752;48.266;7.402;2023-04-16T02:00:45;99540.06;;;11.25;85.38
43147;BME280;28752;48.266;7.402;2023-04-16T02:03:10;99545.22;;;11.26;84.37
43147;BME280;28752;48.266;7.402;2023-04-16T02:05:35;99550.38;;;11.28;84.04
43147;BME280;28752;48.266;7.402;2023-04-16T02:08:01;99541.59;;;11.27;83.59
43147;BME280;28752;48.266;7.402;2023-04-16T02:10:26;99541.16;;;11.32;82.66
43147;BME280;28752;48.266;7.402;2023-04-16T02:12:51;99544.63;;;11.32;81.97
43147;BME280;28752;48.266;7.402;2023-04-16T02:15:17;99545.78;;;11.30;81.87
43147;BME280;28752;48.266;7.402;2023-04-16T02:17:42;99546.75;;;11.29;81.19
43147;BME280;28752;48.266;7.402;2023-04-16T02:20:08;99538.97;;;11.27;80.33
43147;BME280;28752;48.266;7.402;2023-04-16T02:22:34;99546.63;;;11.30;80.46
43147;BME280;28752;48.266;7.402;2023-04-16T02:25:00;99540.88;;;11.35;80.10
43147;BME280;28752;48.266;7.402;2023-04-16T02:27:25;99534.75;;;11.34;79.75
43147;BME280;28752;48.266;7.402;2023-04-16T02:29:51;99540.88;;;11.35;79.85
43147;BME280;28752;48.266;7.402;2023-04-16T02:32:16;99546.47;;;11.32;78.54
43147;BME280;28752;48.266;7.402;2023-04-16T02:34:42;99545.69;;;11.22;75.92
43147;BME280;28752;48.266;7.402;2023-04-16T02:37:07;99546.47;;;11.32;76.77
43147;BME280;28752;48.266;7.402;2023-04-16T02:39:33;99551.91;;;11.30;76.48
43147;BME280;28752;48.266;7.402;2023-04-16T02:41:58;99544.84;;;11.21;75.42
43147;BME280;28752;48.266;7.402;2023-04-16T02:44:24;99545.50;;;11.33;75.53
43147;BME280;28752;48.266;7.402;2023-04-16T02:46:50;99551.25;;;11.46;76.71
43147;BME280;28752;48.266;7.402;2023-04-16T02:49:15;99546.38;;;11.24;79.55
43147;BME280;28752;48.266;7.402;2023-04-16T02:51:40;99539.94;;;11.26;80.04
43147;BME280;28752;48.266;7.402;2023-04-16T02:54:06;99549.13;;;11.32;80.10
43147;BME280;28752;48.266;7.402;2023-04-16T02:56:31;99546.22;;;11.25;80.83
43147;BME280;28752;48.266;7.402;2023-04-16T02:58:57;99549.31;;;11.20;77.81
43147;BME280;28752;48.266;7.402;2023-04-16T03:01:22;99548.19;;;11.23;77.41
43147;BME280;28752;48.266;7.402;2023-04-16T03:03:47;99548.97;;;11.06;75.68
43147;BME280;28752;48.266;7.402;2023-04-16T03:06:13;99543.75;;;11.14;74.39
43147;BME280;28752;48.266;7.402;2023-04-16T03:08:38;99551.84;;;11.22;72.50
43147;BME280;28752;48.266;7.402;2023-04-16T03:11:04;99553.03;;;11.28;72.73
43147;BME280;28752;48.266;7.402;2023-04-16T03:13:29;99550.38;;;11.28;73.56
43147;BME280;28752;48.266;7.402;2023-04-16T03:15:54;99542.34;;;11.19;72.30
43147;BME280;28752;48.266;7.402;2023-04-16T03:18:20;99546.47;;;11.32;70.79
43147;BME280;28752;48.266;7.402;2023-04-16T03:20:50;99551.25;;;11.28;71.27
43147;BME280;28752;48.266;7.402;2023-04-16T03:23:15;99540.34;;;11.31;71.56
43147;BME280;28752;48.266;7.402;2023-04-16T03:25:41;99542.41;;;11.37;71.71
43147;BME280;28752;48.266;7.402;2023-04-16T03:28:08;99542.78;;;11.43;72.24
43147;BME280;28752;48.266;7.402;2023-04-16T03:30:33;99543.66;;;11.33;71.23
43147;BME280;28752;48.266;7.402;2023-04-16T03:32:59;99550.66;;;11.34;71.04
43147;BME280;28752;48.266;7.402;2023-04-16T03:35:25;99544.41;;;11.26;71.04
43147;BME280;28752;48.266;7.402;2023-04-16T03:37:50;99544.25;;;11.27;70.33
43147;BME280;28752;48.266;7.402;2023-04-16T03:40:16;99545.66;;;11.31;69.91
43147;BME280;28752;48.266;7.402;2023-04-16T03:42:41;99546.75;;;11.29;69.71
43147;BME280;28752;48.266;7.402;2023-04-16T03:45:07;99551.63;;;11.33;70.51
43147;BME280;28752;48.266;7.402;2023-04-16T03:47:33;99557.06;;;11.32;70.55
43147;BME280;28752;48.266;7.402;2023-04-16T03:49:58;99555.25;;;11.32;69.98
43147;BME280;28752;48.266;7.402;2023-04-16T03:52:24;99557.88;;;11.32;70.48
43147;BME280;28752;48.266;7.402;2023-04-16T03:54:49;99550.97;;;11.22;70.71
43147;BME280;28752;48.266;7.402;2023-04-16T03:57:15;99553.59;;;11.31;74.86
43147;BME280;28752;48.266;7.402;2023-04-16T03:59:40;99555.94;;;11.34;76.81
43147;BME280;28752;48.266;7.402;2023-04-16T04:02:05;99554.72;;;11.29;79.18
43147;BME280;28752;48.266;7.402;2023-04-16T04:04:30;99549.56;;;11.27;79.90
43147;BME280;28752;48.266;7.402;2023-04-16T04:06:56;99552.66;;;11.23;81.47
43147;BME280;28752;48.266;7.402;2023-04-16T04:09:21;99546.91;;;11.27;80.76
43147;BME280;28752;48.266;7.402;2023-04-16T04:11:46;99543.81;;;11.32;80.50
43147;BME280;28752;48.266;7.402;2023-04-16T04:14:12;99551.75;;;11.32;80.53
43147;BME280;28752;48.266;7.402;2023-04-16T04:16:37;99553.78;;;11.20;80.55
43147;BME280;28752;48.266;7.402;2023-04-16T04:19:02;99560.47;;;11.14;80.89
43147;BME280;28752;48.266;7.402;2023-04-16T04:21:28;99543.81;;;11.04;78.27
43147;BME280;28752;48.266;7.402;2023-04-16T04:23:54;99557.00;;;11.14;77.35
43147;BME280;28752;48.266;7.402;2023-04-16T04:26:19;99561.63;;;11.12;77.53
43147;BME280;28752;48.266;7.402;2023-04-16T04:28:45;99565.38;;;11.19;78.15
43147;BME280;28752;48.266;7.402;2023-04-16T04:31:11;99565.91;;;11.23;78.47
43147;BME280;28752;48.266;7.402;2023-04-16T04:33:37;99560.06;;;11.19;78.98
43147;BME280;28752;48.266;7.402;2023-04-16T04:36:02;99573.84;;;11.23;78.53
43147;BME280;28752;48.266;7.402;2023-04-16T04:38:27;99567.44;;;11.25;74.49
43147;BME280;28752;48.266;7.402;2023-04-16T04:40:54;99573.56;;;11.26;77.27
43147;BME280;28752;48.266;7.402;2023-04-16T04:43:20;99572.88;;;11.24;77.84
43147;BME280;28752;48.266;7.402;2023-04-16T04:45:45;99574.59;;;11.15;74.31
43147;BME280;28752;48.266;7.402;2023-04-16T04:48:11;99574.59;;;11.15;73.39
43147;BME280;28752;48.266;7.402;2023-04-16T04:50:37;99580.13;;;11.22;71.98
43147;BME280;28752;48.266;7.402;2023-04-16T04:53:02;99571.94;;;11.15;70.43
43147;BME280;28752;48.266;7.402;2023-04-16T04:55:34;99576.53;;;11.13;69.72
43147;BME280;28752;48.266;7.402;2023-04-16T04:57:59;99579.47;;;11.10;69.27
43147;BME280;28752;48.266;7.402;2023-04-16T05:00:25;99577.09;;;11.16;69.46
43147;BME280;28752;48.266;7.402;2023-04-16T05:02:50;99587.41;;;11.19;69.42
43147;BME280;28752;48.266;7.402;2023-04-16T05:05:16;99590.44;;;11.25;69.57
43147;BME280;28752;48.266;7.402;2023-04-16T05:07:41;99586.28;;;11.22;71.04
43147;BME280;28752;48.266;7.402;2023-04-16T05:10:07;99585.63;;;11.10;68.85
43147;BME280;28752;48.266;7.402;2023-04-16T05:12:33;99583.56;;;11.04;68.80
43147;BME280;28752;48.266;7.402;2023-04-16T05:14:58;99598.97;;;11.18;68.72
43147;BME280;28752;48.266;7.402;2023-04-16T05:17:23;99600.22;;;11.14;70.29
43147;BME280;28752;48.266;7.402;2023-04-16T05:19:49;99598.44;;;11.15;69.32
43147;BME280;28752;48.266;7.402;2023-04-16T05:22:14;99601.25;;;11.13;70.14
43147;BME280;28752;48.266;7.402;2023-04-16T05:24:43;99605.53;;;11.14;68.97
43147;BME280;28752;48.266;7.402;2023-04-16T05:27:08;99602.63;;;11.08;68.58
43147;BME280;28752;48.266;7.402;2023-04-16T05:29:33;99603.59;;;11.16;70.10
43147;BME280;28752;48.266;7.402;2023-04-16T05:31:59;99610.56;;;11.17;69.79
43147;BME280;28752;48.266;7.402;2023-04-16T05:34:24;99607.13;;;11.07;70.01
43147;BME280;28752;48.266;7.402;2023-04-16T05:36:50;99617.28;;;11.02;70.20
43147;BME280;28752;48.266;7.402;2023-04-16T05:39:15;99612.38;;;11.17;70.25
43147;BME280;28752;48.266;7.402;2023-04-16T05:41:41;99617.38;;;11.20;69.88
43147;BME280;28752;48.266;7.402;2023-04-16T05:44:06;99621.59;;;11.13;70.07
43147;BME280;28752;48.266;7.402;2023-04-16T05:46:31;99626.19;;;11.20;68.83
43147;BME280;28752;48.266;7.402;2023-04-16T05:48:57;99638.88;;;11.17;69.16
43147;BME280;28752;48.266;7.402;2023-04-16T05:51:22;99639.59;;;11.19;69.35
43147;BME280;28752;48.266;7.402;2023-04-16T05:53:50;99641.22;;;11.20;68.73
43147;BME280;28752;48.266;7.402;2023-04-16T05:56:15;99642.63;;;11.24;68.85
43147;BME280;28752;48.266;7.402;2023-04-16T05:58:40;99644.31;;;11.15;68.29
43147;BME280;28752;48.266;7.402;2023-04-16T06:01:06;99644.34;;;11.06;68.83
43147;BME280;28752;48.266;7.402;2023-04-16T06:03:31;99661.47;;;11.21;68.78
43147;BME280;28752;48.266;7.402;2023-04-16T06:05:57;99655.63;;;11.17;68.25
43147;BME280;28752;48.266;7.402;2023-04-16T06:08:22;99657.56;;;11.25;68.98
43147;BME280;28752;48.266;7.402;2023-04-16T06:10:47;99660.94;;;11.17;68.08
43147;BME280;28752;48.266;7.402;2023-04-16T06:13:13;99655.53;;;10.90;68.89
43147;BME280;28752;48.266;7.402;2023-04-16T06:15:38;99662.75;;;11.07;68.64
43147;BME280;28752;48.266;7.402;2023-04-16T06:18:04;99660.97;;;10.98;69.04
43147;BME280;28752;48.266;7.402;2023-04-16T06:20:29;99667.63;;;11.02;68.38
43147;BME280;28752;48.266;7.402;2023-04-16T06:22:55;99668.59;;;11.11;68.61
43147;BME280;28752;48.266;7.402;2023-04-16T06:25:21;99667.63;;;11.12;69.30
43147;BME280;28752;48.266;7.402;2023-04-16T06:27:46;99662.63;;;11.09;68.28
43147;BME280;28752;48.266;7.402;2023-04-16T06:30:13;99673.78;;;11.02;69.42
43147;BME280;28752;48.266;7.402;2023-04-16T06:32:39;99665.50;;;11.15;69.24
43147;BME280;28752;48.266;7.402;2023-04-16T06:35:05;99668.47;;;11.12;68.34
43147;BME280;28752;48.266;7.402;2023-04-16T06:37:30;99656.88;;;11.13;68.58
43147;BME280;28752;48.266;7.402;2023-04-16T06:39:56;99674.03;;;11.19;69.09
43147;BME280;28752;48.266;7.402;2023-04-16T06:42:21;99666.63;;;11.23;68.03
43147;BME280;28752;48.266;7.402;2023-04-16T06:44:47;99668.97;;;11.26;68.71
43147;BME280;28752;48.266;7.402;2023-04-16T06:47:12;99668.75;;;11.09;68.24
43147;BME280;28752;48.266;7.402;2023-04-16T06:49:38;99680.03;;;11.21;67.78
43147;BME280;28752;48.266;7.402;2023-04-16T06:52:04;99687.97;;;11.21;68.53
43147;BME280;28752;48.266;7.402;2023-04-16T06:54:29;99685.19;;;11.23;68.05
43147;BME280;28752;48.266;7.402;2023-04-16T06:56:55;99682.47;;;11.32;67.50
43147;BME280;28752;48.266;7.402;2023-04-16T06:59:20;99692.97;;;11.24;67.92
43147;BME280;28752;48.266;7.402;2023-04-16T07:01:45;99688.22;;;11.37;67.35
43147;BME280;28752;48.266;7.402;2023-04-16T07:04:11;99693.06;;;11.42;66.82
43147;BME280;28752;48.266;7.402;2023-04-16T07:06:36;99690.88;;;11.28;66.78
43147;BME280;28752;48.266;7.402;2023-04-16T07:09:01;99694.94;;;11.22;67.36
43147;BME280;28752;48.266;7.402;2023-04-16T07:11:27;99687.56;;;11.16;67.26
43147;BME280;28752;48.266;7.402;2023-04-16T07:13:53;99697.03;;;11.18;67.78
43147;BME280;28752;48.266;7.402;2023-04-16T07:16:18;99696.50;;;11.05;67.31
43147;BME280;28752;48.266;7.402;2023-04-16T07:18:44;99698.56;;;11.11;67.62
43147;BME280;28752;48.266;7.402;2023-04-16T07:21:09;99699.53;;;11.20;67.77
43147;BME280;28752;48.266;7.402;2023-04-16T07:23:34;99699.53;;;11.30;67.49
43147;BME280;28752;48.266;7.402;2023-04-16T07:26:00;99705.56;;;11.22;66.83
43147;BME280;28752;48.266;7.402;2023-04-16T07:28:25;99699.09;;;11.25;66.88
43147;BME280;28752;48.266;7.402;2023-04-16T07:30:50;99702.19;;;11.20;66.74
43147;BME280;28752;48.266;7.402;2023-04-16T07:33:16;99707.91;;;11.25;67.32
43147;BME280;28752;48.266;7.402;2023-04-16T07:35:41;99716.53;;;11.27;66.57
43147;BME280;28752;48.266;7.402;2023-04-16T07:38:06;99710.81;;;11.32;66.69
43147;BME280;28752;48.266;7.402;2023-04-16T07:40:32;99704.97;;;11.28;66.37
43147;BME280;28752;48.266;7.402;2023-04-16T07:42:57;99712.22;;;11.26;67.09
43147;BME280;28752;48.266;7.402;2023-04-16T07:45:23;99712.34;;;11.34;66.59
43147;BME280;28752;48.266;7.402;2023-04-16T07:47:48;99720.53;;;11.51;66.17
43147;BME280;28752;48.266;7.402;2023-04-16T07:50:13;99716.44;;;11.56;66.48
43147;BME280;28752;48.266;7.402;2023-04-16T07:52:40;99709.34;;;11.57;65.35
43147;BME280;28752;48.266;7.402;2023-04-16T07:55:07;99719.91;;;11.67;65.67
43147;BME280;28752;48.266;7.402;2023-04-16T07:57:32;99719.91;;;11.67;65.23
43147;BME280;28752;48.266;7.402;2023-04-16T07:59:58;99716.22;;;11.78;64.73
43147;BME280;28752;48.266;7.402;2023-04-16T08:02:24;99726.31;;;11.74;64.48
43147;BME280;28752;48.266;7.402;2023-04-16T08:04:50;99723.75;;;11.82;64.71
43147;BME280;28752;48.266;7.402;2023-04-16T08:07:15;99721.97;;;11.73;64.74
43147;BME280;28752;48.266;7.402;2023-04-16T08:09:48;99723.16;;;11.88;64.01
43147;BME280;28752;48.266;7.402;2023-04-16T08:12:15;99721.66;;;11.86;63.75
43147;BME280;28752;48.266;7.402;2023-04-16T08:14:42;99732.38;;;11.94;63.37
43147;BME280;28752;48.266;7.402;2023-04-16T08:17:08;99732.91;;;11.98;63.18
43147;BME280;28752;48.266;7.402;2023-04-16T08:19:33;99738.16;;;11.80;63.70
43147;BME280;28752;48.266;7.402;2023-04-16T08:21:58;99742.72;;;11.87;63.51
43147;BME280;28752;48.266;7.402;2023-04-16T08:24:24;99748.91;;;11.78;64.06
43147;BME280;28752;48.266;7.402;2023-04-16T08:26:49;99757.81;;;11.87;64.51
43147;BME280;28752;48.266;7.402;2023-04-16T08:29:15;99760.75;;;11.84;64.90
43147;BME280;28752;48.266;7.402;2023-04-16T08:31:41;99764.53;;;11.81;64.81
43147;BME280;28752;48.266;7.402;2023-04-16T08:34:06;99766.63;;;11.78;64.95
43147;BME280;28752;48.266;7.402;2023-04-16T08:36:32;99765.75;;;11.97;64.47
43147;BME280;28752;48.266;7.402;2023-04-16T08:38:57;99757.50;;;12.00;66.57
43147;BME280;28752;48.266;7.402;2023-04-16T08:41:22;99765.63;;;11.98;67.50
43147;BME280;28752;48.266;7.402;2023-04-16T08:43:49;99766.53;;;12.07;68.09
43147;BME280;28752;48.266;7.402;2023-04-16T08:46:20;99761.94;;;12.09;68.07
43147;BME280;28752;48.266;7.402;2023-04-16T08:48:48;99773.28;;;12.01;68.33
43147;BME280;28752;48.266;7.402;2023-04-16T08:51:16;99769.41;;;11.86;68.41
43147;BME280;28752;48.266;7.402;2023-04-16T08:53:47;99776.00;;;11.72;68.80
43147;BME280;28752;48.266;7.402;2023-04-16T08:56:21;99772.53;;;11.71;69.43
43147;BME280;28752;48.266;7.402;2023-04-16T08:58:49;99775.75;;;11.65;70.11
43147;BME280;28752;48.266;7.402;2023-04-16T09:01:16;99784.38;;;11.67;69.65
43147;BME280;28752;48.266;7.402;2023-04-16T09:03:44;99779.41;;;11.45;69.67
43147;BME280;28752;48.266;7.402;2023-04-16T09:06:10;99782.47;;;11.60;69.69
43147;BME280;28752;48.266;7.402;2023-04-16T09:08:36;99782.50;;;11.50;69.61
43147;BME280;28752;48.266;7.402;2023-04-16T09:11:02;99783.50;;;11.39;69.53
43147;BME280;28752;48.266;7.402;2023-04-16T09:13:30;99790.88;;;11.35;69.14
43147;BME280;28752;48.266;7.402;2023-04-16T09:15:55;99792.28;;;11.40;69.11
43147;BME280;28752;48.266;7.402;2023-04-16T09:18:22;99795.25;;;11.27;69.14
43147;BME280;28752;48.266;7.402;2023-04-16T09:20:48;99798.19;;;11.04;70.62
43147;BME280;28752;48.266;7.402;2023-04-16T09:23:15;99804.84;;;11.08;70.89
43147;BME280;28752;48.266;7.402;2023-04-16T09:25:41;99804.56;;;11.11;71.76
43147;BME280;28752;48.266;7.402;2023-04-16T09:28:06;99799.84;;;10.95;71.74
43147;BME280;28752;48.266;7.402;2023-04-16T09:30:31;99806.25;;;10.73;72.37
43147;BME280;28752;48.266;7.402;2023-04-16T09:33:16;99804.31;;;10.75;71.75
43147;BME280;28752;48.266;7.402;2023-04-16T09:35:51;99803.47;;;10.84;72.27
43147;BME280;28752;48.266;7.402;2023-04-16T09:38:18;99813.22;;;10.84;72.84
43147;BME280;28752;48.266;7.402;2023-04-16T09:40:44;99816.00;;;10.73;75.29
43147;BME280;28752;48.266;7.402;2023-04-16T09:43:13;99802.88;;;10.52;77.36
43147;BME280;28752;48.266;7.402;2023-04-16T09:45:53;99814.56;;;10.49;80.31
43147;BME280;28752;48.266;7.402;2023-04-16T09:50:54;99820.44;;;10.53;84.13
43147;BME280;28752;48.266;7.402;2023-04-16T09:53:28;99821.00;;;10.56;85.97
43147;BME280;28752;48.266;7.402;2023-04-16T09:56:05;99822.78;;;10.46;86.67
43147;BME280;28752;48.266;7.402;2023-04-16T09:58:31;99822.41;;;10.70;87.23
43147;BME280;28752;48.266;7.402;2023-04-16T10:01:08;99826.22;;;10.87;87.49
43147;BME280;28752;48.266;7.402;2023-04-16T10:03:35;99829.41;;;10.91;86.99
43147;BME280;28752;48.266;7.402;2023-04-16T10:06:14;99826.75;;;10.91;85.01
43147;BME280;28752;48.266;7.402;2023-04-16T10:08:58;99822.56;;;10.88;85.32
43147;BME280;28752;48.266;7.402;2023-04-16T10:11:24;99820.78;;;10.98;85.68
43147;BME280;28752;48.266;7.402;2023-04-16T10:13:50;99823.97;;;11.02;84.33
43147;BME280;28752;48.266;7.402;2023-04-16T10:16:15;99831.66;;;11.15;84.51
43147;BME280;28752;48.266;7.402;2023-04-16T10:18:42;99838.38;;;11.19;83.84
43147;BME280;28752;48.266;7.402;2023-04-16T10:21:08;99835.13;;;11.15;82.87
43147;BME280;28752;48.266;7.402;2023-04-16T10:23:37;99842.25;;;11.25;82.82
43147;BME280;28752;48.266;7.402;2023-04-16T10:26:04;99836.81;;;11.36;84.32
43147;BME280;28752;48.266;7.402;2023-04-16T10:28:30;99838.63;;;11.45;83.58
43147;BME280;28752;48.266;7.402;2023-04-16T10:30:57;99833.31;;;11.45;82.78
43147;BME280;28752;48.266;7.402;2023-04-16T10:33:26;99838.00;;;11.61;83.07
43147;BME280;28752;48.266;7.402;2023-04-16T10:36:06;99842.75;;;11.77;81.82
43147;BME280;28752;48.266;7.402;2023-04-16T10:38:32;99844.44;;;11.78;79.88
43147;BME280;28752;48.266;7.402;2023-04-16T10:40:59;99847.75;;;11.80;79.84
43147;BME280;28752;48.266;7.402;2023-04-16T10:43:27;99851.97;;;11.73;80.76
43147;BME280;28752;48.266;7.402;2023-04-16T10:45:52;99845.41;;;11.77;81.01
43147;BME280;28752;48.266;7.402;2023-04-16T10:48:18;99850.00;;;11.75;81.69
43147;BME280;28752;48.266;7.402;2023-04-16T10:50:53;99851.97;;;11.73;81.79
43147;BME280;28752;48.266;7.402;2023-04-16T10:53:25;99852.41;;;11.59;82.28
43147;BME280;28752;48.266;7.402;2023-04-16T10:58:28;99852.84;;;11.54;80.80
43147;BME280;28752;48.266;7.402;2023-04-16T11:00:53;99854.78;;;11.52;80.63
43147;BME280;28752;48.266;7.402;2023-04-16T11:03:19;99850.47;;;11.51;82.07
43147;BME280;28752;48.266;7.402;2023-04-16T11:05:45;99851.31;;;11.51;78.60
43147;BME280;28752;48.266;7.402;2023-04-16T11:08:14;99846.97;;;11.60;78.23
43147;BME280;28752;48.266;7.402;2023-04-16T11:10:40;99849.88;;;11.67;76.65
43147;BME280;28752;48.266;7.402;2023-04-16T11:13:06;99847.78;;;11.61;74.79
43147;BME280;28752;48.266;7.402;2023-04-16T11:15:33;99853.66;;;11.54;71.01
43147;BME280;28752;48.266;7.402;2023-04-16T11:17:59;99847.50;;;11.64;74.56
43147;BME280;28752;48.266;7.402;2023-04-16T11:20:25;99853.94;;;11.71;71.18
43147;BME280;28752;48.266;7.402;2023-04-16T11:22:53;99852.09;;;11.71;71.08
43147;BME280;28752;48.266;7.402;2023-04-16T11:25:20;99856.53;;;11.81;70.52
43147;BME280;28752;48.266;7.402;2023-04-16T11:27:49;99850.38;;;12.00;70.57
43147;BME280;28752;48.266;7.402;2023-04-16T11:30:16;99848.78;;;12.17;72.28
43147;BME280;28752;48.266;7.402;2023-04-16T11:32:42;99851.53;;;12.25;71.04
43147;BME280;28752;48.266;7.402;2023-04-16T11:35:16;99844.13;;;12.29;68.78
43147;BME280;28752;48.266;7.402;2023-04-16T11:37:42;99845.94;;;12.28;69.67
43147;BME280;28752;48.266;7.402;2023-04-16T11:40:08;99841.56;;;12.37;67.96
43147;BME280;28752;48.266;7.402;2023-04-16T11:42:35;99847.69;;;12.37;68.49
43147;BME280;28752;48.266;7.402;2023-04-16T11:45:08;99839.59;;;12.39;67.16
43147;BME280;28752;48.266;7.402;2023-04-16T11:47:47;99849.66;;;12.45;65.33
43147;BME280;28752;48.266;7.402;2023-04-16T11:50:27;99834.59;;;12.64;66.92
43147;BME280;28752;48.266;7.402;2023-04-16T11:52:54;99836.22;;;12.65;65.96
43147;BME280;28752;48.266;7.402;2023-04-16T11:55:20;99835.66;;;12.89;66.33
43147;BME280;28752;48.266;7.402;2023-04-16T11:57:46;99834.09;;;13.14;63.66
43147;BME280;28752;48.266;7.402;2023-04-16T12:00:12;99836.44;;;13.53;63.86
43147;BME280;28752;48.266;7.402;2023-04-16T12:02:48;99834.47;;;13.63;60.06
43147;BME280;28752;48.266;7.402;2023-04-16T12:05:35;99836.19;;;14.25;58.68
43147;BME280;28752;48.266;7.402;2023-04-16T12:08:04;99838.59;;;14.45;56.76
43147;BME280;28752;48.266;7.402;2023-04-16T12:10:32;99840.19;;;14.64;57.31
43147;BME280;28752;48.266;7.402;2023-04-16T12:13:12;99847.41;;;14.88;55.83
43147;BME280;28752;48.266;7.402;2023-04-16T12:15:48;99841.75;;;14.06;56.49
43147;BME280;28752;48.266;7.402;2023-04-16T12:18:15;99851.91;;;14.45;57.05
43147;BME280;28752;48.266;7.402;2023-04-16T12:20:41;99841.44;;;14.94;56.97
43147;BME280;28752;48.266;7.402;2023-04-16T12:23:06;99847.06;;;14.74;54.22
43147;BME280;28752;48.266;7.402;2023-04-16T12:25:41;99843.44;;;15.25;55.37
43147;BME280;28752;48.266;7.402;2023-04-16T12:28:06;99841.09;;;15.63;54.82
43147;BME280;28752;48.266;7.402;2023-04-16T12:30:32;99845.28;;;15.66;53.90
43147;BME280;28752;48.266;7.402;2023-04-16T12:33:14;99847.94;;;15.41;52.78
43147;BME280;28752;48.266;7.402;2023-04-16T12:35:40;99848.09;;;15.56;54.71
43147;BME280;28752;48.266;7.402;2023-04-16T12:38:08;99842.88;;;16.12;54.49
43147;BME280;28752;48.266;7.402;2023-04-16T12:40:33;99844.72;;;16.11;51.81
43147;BME280;28752;48.266;7.402;2023-04-16T12:43:00;99846.09;;;15.99;50.34
43147;BME280;28752;48.266;7.402;2023-04-16T12:45:25;99843.38;;;16.07;51.50
43147;BME280;28752;48.266;7.402;2023-04-16T12:47:51;99837.03;;;16.08;50.33
43147;BME280;28752;48.266;7.402;2023-04-16T12:50:16;99839.44;;;15.70;51.98
43147;BME280;28752;48.266;7.402;2023-04-16T12:52:42;99842.63;;;15.66;51.24
43147;BME280;28752;48.266;7.402;2023-04-16T12:55:08;99848.28;;;15.79;52.46
43147;BME280;28752;48.266;7.402;2023-04-16T12:57:33;99836.75;;;15.95;53.33
43147;BME280;28752;48.266;7.402;2023-04-16T12:59:58;99845.09;;;15.75;51.46
43147;BME280;28752;48.266;7.402;2023-04-16T13:02:24;99850.78;;;15.48;53.99